sensor_id;sensor_type;location;lat;lon;timestamp;temperature;humidity
24232;DHT22;12364;47.810;8.810;2022-12-10T00:01:27;7.00;98.70
24232;DHT22;12364;47.810;8.810;2022-12-10T00:03:54;7.00;98.70
24232;DHT22;12364;47.810;8.810;2022-12-10T00:06:25;6.90;98.60
24232;DHT22;12364;47.810;8.810;2022-12-10T00:08:52;6.90;98.70
24232;DHT22;12364;47.810;8.810;2022-12-10T00:11:20;6.90;98.80
24232;DHT22;12364;47.810;8.810;2022-12-10T00:13:47;6.90;98.90
24232;DHT22;12364;47.810;8.810;2022-12-10T00:16:15;6.90;98.70
24232;DHT22;12364;47.810;8.810;2022-12-10T00:18:43;7.00;98.70
24232;DHT22;12364;47.810;8.810;2022-12-10T00:21:11;6.90;98.70
24232;DHT22;12364;47.810;8.810;2022-12-10T00:23:38;6.90;98.70
24232;DHT22;12364;47.810;8.810;2022-12-10T00:26:07;6.90;98.60
24232;DHT22;12364;47.810;8.810;2022-12-10T00:28:34;6.90;98.80
24232;DHT22;12364;47.810;8.810;2022-12-10T05:32:59;6.90;98.70
24232;DHT22;12364;47.810;8.810;2022-12-10T05:35:26;6.90;98.90
24232;DHT22;12364;47.810;8.810;2022-12-10T05:37:53;6.80;98.90
24232;DHT22;12364;47.810;8.810;2022-12-10T05:40:20;6.80;99.00
24232;DHT22;12364;47.810;8.810;2022-12-10T05:42:47;6.80;99.10
24232;DHT22;12364;47.810;8.810;2022-12-10T05:45:14;6.80;99.20
24232;DHT22;12364;47.810;8.810;2022-12-10T05:47:41;6.80;99.10
24232;DHT22;12364;47.810;8.810;2022-12-10T05:50:08;6.70;99.10
24232;DHT22;12364;47.810;8.810;2022-12-10T05:52:35;6.70;99.30
24232;DHT22;12364;47.810;8.810;2022-12-10T05:55:02;6.70;99.30
24232;DHT22;12364;47.810;8.810;2022-12-10T05:57:29;6.60;99.30
24232;DHT22;12364;47.810;8.810;2022-12-10T05:59:56;6.60;99.40
24232;DHT22;12364;47.810;8.810;2022-12-10T06:02:23;6.60;99.40
24232;DHT22;12364;47.810;8.810;2022-12-10T06:04:50;6.60;99.50
24232;DHT22;12364;47.810;8.810;2022-12-10T06:07:17;6.60;99.40
24232;DHT22;12364;47.810;8.810;2022-12-10T06:09:44;6.70;99.50
24232;DHT22;12364;47.810;8.810;2022-12-10T06:12:11;6.70;99.40
24232;DHT22;12364;47.810;8.810;2022-12-10T06:14:38;6.70;99.50
24232;DHT22;12364;47.810;8.810;2022-12-10T06:17:05;6.70;99.40
24232;DHT22;12364;47.810;8.810;2022-12-10T06:19:32;6.70;99.40
24232;DHT22;12364;47.810;8.810;2022-12-10T06:21:58;6.70;99.40
24232;DHT22;12364;47.810;8.810;2022-12-10T06:24:25;6.70;99.30
24232;DHT22;12364;47.810;8.810;2022-12-10T06:26:52;6.70;99.20
24232;DHT22;12364;47.810;8.810;2022-12-10T06:29:21;6.70;99.50
24232;DHT22;12364;47.810;8.810;2022-12-10T06:31:48;6.70;99.30
24232;DHT22;12364;47.810;8.810;2022-12-10T06:34:15;6.80;99.20
24232;DHT22;12364;47.810;8.810;2022-12-10T06:36:42;6.80;99.30
24232;DHT22;12364;47.810;8.810;2022-12-10T06:39:09;6.80;99.30
24232;DHT22;12364;47.810;8.810;2022-12-10T06:41:36;6.80;99.20
24232;DHT22;12364;47.810;8.810;2022-12-10T06:44:06;6.80;99.20
24232;DHT22;12364;47.810;8.810;2022-12-10T06:46:33;6.80;99.20
24232;DHT22;12364;47.810;8.810;2022-12-10T06:49:00;6.80;99.20
24232;DHT22;12364;47.810;8.810;2022-12-10T06:51:27;6.80;99.00
24232;DHT22;12364;47.810;8.810;2022-12-10T06:53:54;6.80;99.00
24232;DHT22;12364;47.810;8.810;2022-12-10T06:56:21;6.70;99.00
24232;DHT22;12364;47.810;8.810;2022-12-10T06:58:48;6.70;99.00
24232;DHT22;12364;47.810;8.810;2022-12-10T07:01:17;6.70;99.20
24232;DHT22;12364;47.810;8.810;2022-12-10T07:03:44;6.70;99.20
24232;DHT22;12364;47.810;8.810;2022-12-10T07:06:13;6.70;99.30
24232;DHT22;12364;47.810;8.810;2022-12-10T07:08:40;6.70;99.20
24232;DHT22;12364;47.810;8.810;2022-12-10T07:11:08;6.80;99.30
24232;DHT22;12364;47.810;8.810;2022-12-10T07:13:36;6.80;99.30
24232;DHT22;12364;47.810;8.810;2022-12-10T07:16:03;6.90;99.20
24232;DHT22;12364;47.810;8.810;2022-12-10T07:18:37;6.90;99.10
24232;DHT22;12364;47.810;8.810;2022-12-10T07:21:17;6.80;99.10
24232;DHT22;12364;47.810;8.810;2022-12-10T07:23:44;6.80;99.20
24232;DHT22;12364;47.810;8.810;2022-12-10T07:26:12;6.80;99.20
24232;DHT22;12364;47.810;8.810;2022-12-10T07:28:39;6.70;99.20
24232;DHT22;12364;47.810;8.810;2022-12-10T07:31:18;6.70;99.40
24232;DHT22;12364;47.810;8.810;2022-12-10T07:33:45;6.70;99.40
24232;DHT22;12364;47.810;8.810;2022-12-10T07:36:12;6.80;99.30
24232;DHT22;12364;47.810;8.810;2022-12-10T07:38:39;6.80;99.30
24232;DHT22;12364;47.810;8.810;2022-12-10T07:41:07;6.90;99.10
24232;DHT22;12364;47.810;8.810;2022-12-10T07:43:38;6.80;99.10
24232;DHT22;12364;47.810;8.810;2022-12-10T07:46:06;6.80;99.20
24232;DHT22;12364;47.810;8.810;2022-12-10T07:48:34;6.70;99.10
24232;DHT22;12364;47.810;8.810;2022-12-10T07:51:02;6.70;99.20
24232;DHT22;12364;47.810;8.810;2022-12-10T07:53:29;6.70;99.30
24232;DHT22;12364;47.810;8.810;2022-12-10T07:55:56;6.80;99.40
24232;DHT22;12364;47.810;8.810;2022-12-10T07:58:23;6.80;99.30
24232;DHT22;12364;47.810;8.810;2022-12-10T08:00:50;6.80;99.30
24232;DHT22;12364;47.810;8.810;2022-12-10T08:03:17;6.80;99.30
24232;DHT22;12364;47.810;8.810;2022-12-10T08:05:44;6.90;99.30
24232;DHT22;12364;47.810;8.810;2022-12-10T08:08:11;6.90;99.20
24232;DHT22;12364;47.810;8.810;2022-12-10T08:10:38;6.80;99.30
24232;DHT22;12364;47.810;8.810;2022-12-10T08:13:06;6.90;99.30
24232;DHT22;12364;47.810;8.810;2022-12-10T08:15:33;6.90;99.20
24232;DHT22;12364;47.810;8.810;2022-12-10T08:17:59;6.90;99.20
24232;DHT22;12364;47.810;8.810;2022-12-10T08:20:26;6.90;99.00
24232;DHT22;12364;47.810;8.810;2022-12-10T08:22:53;6.90;98.90
24232;DHT22;12364;47.810;8.810;2022-12-10T08:25:20;6.90;99.00
24232;DHT22;12364;47.810;8.810;2022-12-10T08:27:47;6.90;98.50
24232;DHT22;12364;47.810;8.810;2022-12-10T08:30:14;6.90;98.50
24232;DHT22;12364;47.810;8.810;2022-12-10T08:32:41;6.90;98.60
24232;DHT22;12364;47.810;8.810;2022-12-10T08:35:08;6.90;98.80
24232;DHT22;12364;47.810;8.810;2022-12-10T08:37:35;6.90;98.80
24232;DHT22;12364;47.810;8.810;2022-12-10T08:40:02;6.90;98.70
24232;DHT22;12364;47.810;8.810;2022-12-10T08:42:29;6.80;98.80
24232;DHT22;12364;47.810;8.810;2022-12-10T08:44:56;6.80;98.90
24232;DHT22;12364;47.810;8.810;2022-12-10T08:47:23;6.80;99.00
24232;DHT22;12364;47.810;8.810;2022-12-10T08:49:50;6.90;99.00
24232;DHT22;12364;47.810;8.810;2022-12-10T08:52:17;6.90;98.90
24232;DHT22;12364;47.810;8.810;2022-12-10T08:54:44;6.80;99.00
24232;DHT22;12364;47.810;8.810;2022-12-10T08:57:11;6.80;99.20
24232;DHT22;12364;47.810;8.810;2022-12-10T08:59:37;6.90;99.10
24232;DHT22;12364;47.810;8.810;2022-12-10T09:02:04;6.90;98.90
24232;DHT22;12364;47.810;8.810;2022-12-10T09:04:31;6.90;98.80
24232;DHT22;12364;47.810;8.810;2022-12-10T09:06:58;7.00;98.50
24232;DHT22;12364;47.810;8.810;2022-12-10T09:09:25;7.10;97.90
24232;DHT22;12364;47.810;8.810;2022-12-10T09:11:52;7.10;97.60
24232;DHT22;12364;47.810;8.810;2022-12-10T09:14:19;7.10;97.50
24232;DHT22;12364;47.810;8.810;2022-12-10T09:16:46;7.10;97.00
24232;DHT22;12364;47.810;8.810;2022-12-10T09:19:13;7.10;96.80
24232;DHT22;12364;47.810;8.810;2022-12-10T09:21:46;7.00;96.80
24232;DHT22;12364;47.810;8.810;2022-12-10T09:24:13;6.90;96.80
24232;DHT22;12364;47.810;8.810;2022-12-10T09:26:40;7.00;97.10
24232;DHT22;12364;47.810;8.810;2022-12-10T09:29:07;7.00;97.10
24232;DHT22;12364;47.810;8.810;2022-12-10T09:31:34;7.00;97.20
24232;DHT22;12364;47.810;8.810;2022-12-10T09:34:01;7.10;97.50
24232;DHT22;12364;47.810;8.810;2022-12-10T09:36:28;7.10;97.20
24232;DHT22;12364;47.810;8.810;2022-12-10T09:38:59;7.10;97.80
24232;DHT22;12364;47.810;8.810;2022-12-10T09:49:21;6.80;97.60
24232;DHT22;12364;47.810;8.810;2022-12-10T09:51:50;7.10;98.00
24232;DHT22;12364;47.810;8.810;2022-12-10T09:56:47;7.10;98.40
24232;DHT22;12364;47.810;8.810;2022-12-10T10:01:48;7.10;98.50
24232;DHT22;12364;47.810;8.810;2022-12-10T10:04:17;7.10;98.50
24232;DHT22;12364;47.810;8.810;2022-12-10T10:06:44;7.10;98.40
24232;DHT22;12364;47.810;8.810;2022-12-10T10:09:11;7.20;98.70
24232;DHT22;12364;47.810;8.810;2022-12-10T10:11:39;7.40;98.50
24232;DHT22;12364;47.810;8.810;2022-12-10T10:14:10;7.40;98.40
24232;DHT22;12364;47.810;8.810;2022-12-10T10:19:16;7.50;98.60
24232;DHT22;12364;47.810;8.810;2022-12-10T10:21:45;7.50;98.60
24232;DHT22;12364;47.810;8.810;2022-12-10T10:24:16;7.50;98.60
24232;DHT22;12364;47.810;8.810;2022-12-10T10:26:44;7.50;98.30
24232;DHT22;12364;47.810;8.810;2022-12-10T10:29:13;7.40;98.30
24232;DHT22;12364;47.810;8.810;2022-12-10T10:31:41;7.40;98.50
24232;DHT22;12364;47.810;8.810;2022-12-10T10:36:41;7.40;98.40
24232;DHT22;12364;47.810;8.810;2022-12-10T10:39:09;7.40;98.30
24232;DHT22;12364;47.810;8.810;2022-12-10T10:41:38;7.50;98.30
24232;DHT22;12364;47.810;8.810;2022-12-10T10:44:13;7.60;98.10
24232;DHT22;12364;47.810;8.810;2022-12-10T10:46:40;7.60;97.80
24232;DHT22;12364;47.810;8.810;2022-12-10T10:51:57;7.60;97.70
24232;DHT22;12364;47.810;8.810;2022-12-10T10:54:32;7.50;97.80
24232;DHT22;12364;47.810;8.810;2022-12-10T10:57:42;7.50;98.00
24232;DHT22;12364;47.810;8.810;2022-12-10T10:59:53;7.50;98.10
24232;DHT22;12364;47.810;8.810;2022-12-10T11:02:32;7.40;98.60
24232;DHT22;12364;47.810;8.810;2022-12-10T11:05:16;7.50;98.20
24232;DHT22;12364;47.810;8.810;2022-12-10T11:07:44;7.50;98.00
24232;DHT22;12364;47.810;8.810;2022-12-10T11:10:20;7.40;97.90
24232;DHT22;12364;47.810;8.810;2022-12-10T11:17:52;7.30;98.30
24232;DHT22;12364;47.810;8.810;2022-12-10T11:22:53;7.30;97.70
24232;DHT22;12364;47.810;8.810;2022-12-10T11:28:02;7.30;97.10
24232;DHT22;12364;47.810;8.810;2022-12-10T11:30:31;7.30;97.10
24232;DHT22;12364;47.810;8.810;2022-12-10T11:33:09;7.30;97.20
24232;DHT22;12364;47.810;8.810;2022-12-10T11:40:34;7.50;96.40
24232;DHT22;12364;47.810;8.810;2022-12-10T11:43:12;7.50;96.60
24232;DHT22;12364;47.810;8.810;2022-12-10T11:51:19;7.40;97.20
24232;DHT22;12364;47.810;8.810;2022-12-10T11:53:57;7.40;97.30
24232;DHT22;12364;47.810;8.810;2022-12-10T11:56:26;7.40;97.20
24232;DHT22;12364;47.810;8.810;2022-12-10T11:59:06;7.40;96.90
24232;DHT22;12364;47.810;8.810;2022-12-10T12:07:01;7.40;97.50
24232;DHT22;12364;47.810;8.810;2022-12-10T12:09:30;7.50;97.30
24232;DHT22;12364;47.810;8.810;2022-12-10T12:12:44;7.40;97.20
24232;DHT22;12364;47.810;8.810;2022-12-10T12:14:51;7.40;97.30
24232;DHT22;12364;47.810;8.810;2022-12-10T12:23:03;7.50;97.20
24232;DHT22;12364;47.810;8.810;2022-12-10T12:25:35;7.40;97.10
24232;DHT22;12364;47.810;8.810;2022-12-10T12:28:10;7.40;97.00
24232;DHT22;12364;47.810;8.810;2022-12-10T12:30:38;7.40;96.70
24232;DHT22;12364;47.810;8.810;2022-12-10T12:35:40;7.40;96.90
24232;DHT22;12364;47.810;8.810;2022-12-10T12:43:43;7.30;97.30
24232;DHT22;12364;47.810;8.810;2022-12-10T12:46:16;7.30;97.10
24232;DHT22;12364;47.810;8.810;2022-12-10T12:51:23;7.50;96.80
24232;DHT22;12364;47.810;8.810;2022-12-10T12:53:52;7.30;97.00
24232;DHT22;12364;47.810;8.810;2022-12-10T12:56:30;7.30;96.60
24232;DHT22;12364;47.810;8.810;2022-12-10T13:01:33;7.20;96.50
24232;DHT22;12364;47.810;8.810;2022-12-10T13:04:02;7.20;96.70
24232;DHT22;12364;47.810;8.810;2022-12-10T13:06:31;7.10;97.00
24232;DHT22;12364;47.810;8.810;2022-12-10T13:11:41;7.00;96.70
24232;DHT22;12364;47.810;8.810;2022-12-10T13:24:22;7.10;97.00
24232;DHT22;12364;47.810;8.810;2022-12-10T13:32:23;7.10;96.70
24232;DHT22;12364;47.810;8.810;2022-12-10T13:43:24;7.20;96.50
24232;DHT22;12364;47.810;8.810;2022-12-10T13:48:58;7.00;96.90
24232;DHT22;12364;47.810;8.810;2022-12-10T13:56:29;6.90;97.20
24232;DHT22;12364;47.810;8.810;2022-12-10T14:01:30;6.80;97.20
24232;DHT22;12364;47.810;8.810;2022-12-10T14:04:18;6.90;97.70
24232;DHT22;12364;47.810;8.810;2022-12-10T14:06:49;7.00;97.60
24232;DHT22;12364;47.810;8.810;2022-12-10T14:09:23;7.20;97.20
24232;DHT22;12364;47.810;8.810;2022-12-10T14:11:54;7.10;97.30
24232;DHT22;12364;47.810;8.810;2022-12-10T14:14:27;7.20;97.30
24232;DHT22;12364;47.810;8.810;2022-12-10T14:16:56;7.10;97.10
24232;DHT22;12364;47.810;8.810;2022-12-10T14:19:31;7.00;97.20
24232;DHT22;12364;47.810;8.810;2022-12-10T14:22:03;7.00;97.30
24232;DHT22;12364;47.810;8.810;2022-12-10T14:24:35;6.90;97.30
24232;DHT22;12364;47.810;8.810;2022-12-10T14:27:13;6.90;97.40
24232;DHT22;12364;47.810;8.810;2022-12-10T14:29:59;6.90;97.30
24232;DHT22;12364;47.810;8.810;2022-12-10T14:32:33;7.00;97.20
24232;DHT22;12364;47.810;8.810;2022-12-10T14:35:01;7.00;97.20
24232;DHT22;12364;47.810;8.810;2022-12-10T14:37:31;7.00;96.70
24232;DHT22;12364;47.810;8.810;2022-12-10T14:40:00;6.90;97.00
24232;DHT22;12364;47.810;8.810;2022-12-10T14:42:27;6.90;97.40
24232;DHT22;12364;47.810;8.810;2022-12-10T14:44:56;6.80;97.20
24232;DHT22;12364;47.810;8.810;2022-12-10T14:47:24;6.80;97.40
24232;DHT22;12364;47.810;8.810;2022-12-10T14:49:51;6.80;97.40
24232;DHT22;12364;47.810;8.810;2022-12-10T14:52:20;6.80;97.40
24232;DHT22;12364;47.810;8.810;2022-12-10T14:54:48;6.80;97.30
24232;DHT22;12364;47.810;8.810;2022-12-10T14:57:16;6.80;97.10
24232;DHT22;12364;47.810;8.810;2022-12-10T15:02:18;6.70;97.10
24232;DHT22;12364;47.810;8.810;2022-12-10T15:04:46;6.60;97.00
24232;DHT22;12364;47.810;8.810;2022-12-10T15:07:14;6.60;97.00
24232;DHT22;12364;47.810;8.810;2022-12-10T15:09:43;6.50;97.00
24232;DHT22;12364;47.810;8.810;2022-12-10T15:15:14;6.40;97.10
24232;DHT22;12364;47.810;8.810;2022-12-10T15:17:45;6.40;97.10
24232;DHT22;12364;47.810;8.810;2022-12-10T15:20:20;6.30;97.20
24232;DHT22;12364;47.810;8.810;2022-12-10T15:22:47;6.30;97.40
24232;DHT22;12364;47.810;8.810;2022-12-10T15:25:22;6.30;97.50
24232;DHT22;12364;47.810;8.810;2022-12-10T15:27:53;6.30;97.70
24232;DHT22;12364;47.810;8.810;2022-12-10T15:30:21;6.50;97.90
24232;DHT22;12364;47.810;8.810;2022-12-10T15:32:48;6.60;97.70
24232;DHT22;12364;47.810;8.810;2022-12-10T15:35:16;6.60;97.70
24232;DHT22;12364;47.810;8.810;2022-12-10T15:37:44;6.70;97.90
24232;DHT22;12364;47.810;8.810;2022-12-10T15:40:25;6.80;97.60
24232;DHT22;12364;47.810;8.810;2022-12-10T15:42:56;6.70;97.60
24232;DHT22;12364;47.810;8.810;2022-12-10T15:45:27;6.80;97.70
24232;DHT22;12364;47.810;8.810;2022-12-10T15:47:58;6.70;97.40
24232;DHT22;12364;47.810;8.810;2022-12-10T15:50:25;6.60;97.40
24232;DHT22;12364;47.810;8.810;2022-12-10T15:52:52;6.60;97.70
24232;DHT22;12364;47.810;8.810;2022-12-10T15:55:19;6.70;97.70
24232;DHT22;12364;47.810;8.810;2022-12-10T15:57:46;6.70;97.60
24232;DHT22;12364;47.810;8.810;2022-12-10T16:00:26;6.60;97.70
24232;DHT22;12364;47.810;8.810;2022-12-10T16:02:54;6.60;97.70
24232;DHT22;12364;47.810;8.810;2022-12-10T16:07:49;6.70;97.80
24232;DHT22;12364;47.810;8.810;2022-12-10T16:10:18;6.70;97.70
24232;DHT22;12364;47.810;8.810;2022-12-10T16:12:45;6.70;97.60
24232;DHT22;12364;47.810;8.810;2022-12-10T16:15:17;6.70;97.80
24232;DHT22;12364;47.810;8.810;2022-12-10T16:17:45;6.70;97.50
24232;DHT22;12364;47.810;8.810;2022-12-10T16:22:49;6.60;97.50
24232;DHT22;12364;47.810;8.810;2022-12-10T16:25:16;6.50;97.80
24232;DHT22;12364;47.810;8.810;2022-12-10T16:27:43;6.50;97.90
24232;DHT22;12364;47.810;8.810;2022-12-10T16:32:40;6.70;97.80
24232;DHT22;12364;47.810;8.810;2022-12-10T16:35:07;6.70;97.60
24232;DHT22;12364;47.810;8.810;2022-12-10T16:37:34;6.40;97.60
24232;DHT22;12364;47.810;8.810;2022-12-10T16:40:02;6.60;97.90
24232;DHT22;12364;47.810;8.810;2022-12-10T16:42:29;6.60;97.70
24232;DHT22;12364;47.810;8.810;2022-12-10T16:44:56;6.50;97.80
24232;DHT22;12364;47.810;8.810;2022-12-10T16:47:23;6.50;97.60
24232;DHT22;12364;47.810;8.810;2022-12-10T16:49:50;6.50;97.70
24232;DHT22;12364;47.810;8.810;2022-12-10T16:52:17;6.50;97.60
24232;DHT22;12364;47.810;8.810;2022-12-10T16:54:44;6.40;97.60
24232;DHT22;12364;47.810;8.810;2022-12-10T16:57:11;6.30;97.70
24232;DHT22;12364;47.810;8.810;2022-12-10T16:59:39;6.30;98.00
24232;DHT22;12364;47.810;8.810;2022-12-10T17:02:15;6.30;97.90
24232;DHT22;12364;47.810;8.810;2022-12-10T17:04:43;6.40;98.00
24232;DHT22;12364;47.810;8.810;2022-12-10T17:07:11;6.40;97.80
24232;DHT22;12364;47.810;8.810;2022-12-10T17:09:38;6.40;97.80
24232;DHT22;12364;47.810;8.810;2022-12-10T17:12:07;6.30;98.00
24232;DHT22;12364;47.810;8.810;2022-12-10T17:14:38;6.30;97.90
24232;DHT22;12364;47.810;8.810;2022-12-10T17:17:06;6.30;97.90
24232;DHT22;12364;47.810;8.810;2022-12-10T17:19:34;6.30;97.90
24232;DHT22;12364;47.810;8.810;2022-12-10T17:22:02;6.30;97.70
24232;DHT22;12364;47.810;8.810;2022-12-10T17:24:29;6.30;97.50
24232;DHT22;12364;47.810;8.810;2022-12-10T17:26:58;6.20;97.30
24232;DHT22;12364;47.810;8.810;2022-12-10T17:29:36;6.20;97.30
24232;DHT22;12364;47.810;8.810;2022-12-10T17:32:04;6.20;97.30
24232;DHT22;12364;47.810;8.810;2022-12-10T17:34:31;6.10;97.10
24232;DHT22;12364;47.810;8.810;2022-12-10T17:36:58;6.10;97.10
24232;DHT22;12364;47.810;8.810;2022-12-10T17:39:25;6.10;97.10
24232;DHT22;12364;47.810;8.810;2022-12-10T17:41:52;6.10;97.00
24232;DHT22;12364;47.810;8.810;2022-12-10T17:44:19;6.10;96.90
24232;DHT22;12364;47.810;8.810;2022-12-10T17:46:48;6.00;96.90
24232;DHT22;12364;47.810;8.810;2022-12-10T17:49:15;6.00;97.00
24232;DHT22;12364;47.810;8.810;2022-12-10T17:51:43;6.00;97.10
24232;DHT22;12364;47.810;8.810;2022-12-10T17:54:10;6.00;97.10
24232;DHT22;12364;47.810;8.810;2022-12-10T17:56:38;5.90;97.00
24232;DHT22;12364;47.810;8.810;2022-12-10T17:59:05;5.90;96.90
24232;DHT22;12364;47.810;8.810;2022-12-10T18:01:32;5.90;97.00
24232;DHT22;12364;47.810;8.810;2022-12-10T18:03:59;5.90;97.00
24232;DHT22;12364;47.810;8.810;2022-12-10T18:06:27;5.90;96.90
24232;DHT22;12364;47.810;8.810;2022-12-10T18:08:56;5.90;97.10
24232;DHT22;12364;47.810;8.810;2022-12-10T18:11:24;5.80;97.00
24232;DHT22;12364;47.810;8.810;2022-12-10T18:13:52;5.80;96.90
24232;DHT22;12364;47.810;8.810;2022-12-10T18:16:20;5.80;97.30
24232;DHT22;12364;47.810;8.810;2022-12-10T18:18:48;5.80;97.00
24232;DHT22;12364;47.810;8.810;2022-12-10T18:21:15;5.70;97.10
24232;DHT22;12364;47.810;8.810;2022-12-10T18:23:44;5.70;97.10
24232;DHT22;12364;47.810;8.810;2022-12-10T18:26:13;5.70;97.20
24232;DHT22;12364;47.810;8.810;2022-12-10T18:28:41;5.70;97.20
24232;DHT22;12364;47.810;8.810;2022-12-10T18:31:08;5.80;97.00
24232;DHT22;12364;47.810;8.810;2022-12-10T18:33:39;5.80;96.90
24232;DHT22;12364;47.810;8.810;2022-12-10T18:36:17;5.80;96.80
24232;DHT22;12364;47.810;8.810;2022-12-10T18:38:51;5.80;96.90
24232;DHT22;12364;47.810;8.810;2022-12-10T18:41:18;5.80;96.90
24232;DHT22;12364;47.810;8.810;2022-12-10T18:43:45;5.80;96.80
24232;DHT22;12364;47.810;8.810;2022-12-10T18:46:17;5.80;96.70
24232;DHT22;12364;47.810;8.810;2022-12-10T18:48:44;5.80;96.60
24232;DHT22;12364;47.810;8.810;2022-12-10T18:51:13;5.80;96.40
24232;DHT22;12364;47.810;8.810;2022-12-10T18:53:41;5.80;96.30
24232;DHT22;12364;47.810;8.810;2022-12-10T18:56:11;5.80;96.20
24232;DHT22;12364;47.810;8.810;2022-12-10T18:58:39;5.80;96.20
24232;DHT22;12364;47.810;8.810;2022-12-10T19:01:06;5.80;96.00
24232;DHT22;12364;47.810;8.810;2022-12-10T19:03:33;5.80;96.00
24232;DHT22;12364;47.810;8.810;2022-12-10T19:06:00;5.70;95.80
24232;DHT22;12364;47.810;8.810;2022-12-10T19:08:27;5.80;95.70
24232;DHT22;12364;47.810;8.810;2022-12-10T19:10:56;5.70;95.90
24232;DHT22;12364;47.810;8.810;2022-12-10T19:13:23;5.70;96.10
24232;DHT22;12364;47.810;8.810;2022-12-10T19:15:50;5.70;96.10
24232;DHT22;12364;47.810;8.810;2022-12-10T19:18:18;5.70;95.90
24232;DHT22;12364;47.810;8.810;2022-12-10T19:20:45;5.70;95.70
24232;DHT22;12364;47.810;8.810;2022-12-10T19:23:12;5.80;96.00
24232;DHT22;12364;47.810;8.810;2022-12-10T19:25:39;5.80;95.80
24232;DHT22;12364;47.810;8.810;2022-12-10T19:28:06;5.80;95.70
24232;DHT22;12364;47.810;8.810;2022-12-10T19:30:33;5.80;95.80
24232;DHT22;12364;47.810;8.810;2022-12-10T19:33:00;5.80;95.60
24232;DHT22;12364;47.810;8.810;2022-12-10T19:35:28;5.80;95.70
24232;DHT22;12364;47.810;8.810;2022-12-10T19:37:55;5.80;95.80
24232;DHT22;12364;47.810;8.810;2022-12-10T19:40:26;5.80;95.90
24232;DHT22;12364;47.810;8.810;2022-12-10T19:42:54;5.80;95.80
24232;DHT22;12364;47.810;8.810;2022-12-10T19:45:22;5.80;95.70
24232;DHT22;12364;47.810;8.810;2022-12-10T19:47:50;5.80;95.70
24232;DHT22;12364;47.810;8.810;2022-12-10T19:50:27;5.80;95.70
24232;DHT22;12364;47.810;8.810;2022-12-10T19:52:54;5.70;95.60
24232;DHT22;12364;47.810;8.810;2022-12-10T19:55:22;5.70;95.50
24232;DHT22;12364;47.810;8.810;2022-12-10T19:57:50;5.70;95.60
24232;DHT22;12364;47.810;8.810;2022-12-10T20:00:21;5.60;95.80
24232;DHT22;12364;47.810;8.810;2022-12-10T20:02:49;5.60;95.90
24232;DHT22;12364;47.810;8.810;2022-12-10T20:05:16;5.60;95.70
24232;DHT22;12364;47.810;8.810;2022-12-10T20:07:44;5.60;95.80
24232;DHT22;12364;47.810;8.810;2022-12-10T20:10:15;5.60;95.80
24232;DHT22;12364;47.810;8.810;2022-12-10T20:12:43;5.60;95.70
24232;DHT22;12364;47.810;8.810;2022-12-10T20:15:10;5.50;96.00
24232;DHT22;12364;47.810;8.810;2022-12-10T20:17:38;5.50;96.10
24232;DHT22;12364;47.810;8.810;2022-12-10T20:20:05;5.50;96.20
24232;DHT22;12364;47.810;8.810;2022-12-10T20:22:32;5.40;96.20
24232;DHT22;12364;47.810;8.810;2022-12-10T20:24:59;5.40;96.20
24232;DHT22;12364;47.810;8.810;2022-12-10T20:27:26;5.40;96.20
24232;DHT22;12364;47.810;8.810;2022-12-10T20:29:53;5.30;96.30
24232;DHT22;12364;47.810;8.810;2022-12-10T20:32:20;5.30;96.30
24232;DHT22;12364;47.810;8.810;2022-12-10T20:34:47;5.30;96.00
24232;DHT22;12364;47.810;8.810;2022-12-10T20:37:14;5.30;95.80
24232;DHT22;12364;47.810;8.810;2022-12-10T20:39:41;5.30;95.70
24232;DHT22;12364;47.810;8.810;2022-12-10T20:42:18;5.40;95.60
24232;DHT22;12364;47.810;8.810;2022-12-10T20:44:45;5.30;95.70
24232;DHT22;12364;47.810;8.810;2022-12-10T20:47:12;5.30;95.70
24232;DHT22;12364;47.810;8.810;2022-12-10T20:49:39;5.30;95.40
24232;DHT22;12364;47.810;8.810;2022-12-10T20:52:06;5.40;95.40
24232;DHT22;12364;47.810;8.810;2022-12-10T20:54:33;5.40;95.40
24232;DHT22;12364;47.810;8.810;2022-12-10T20:57:00;5.30;95.40
24232;DHT22;12364;47.810;8.810;2022-12-10T20:59:27;5.30;95.40
24232;DHT22;12364;47.810;8.810;2022-12-10T21:02:00;5.30;95.20
24232;DHT22;12364;47.810;8.810;2022-12-10T21:04:27;5.30;95.10
24232;DHT22;12364;47.810;8.810;2022-12-10T21:06:54;5.20;95.10
24232;DHT22;12364;47.810;8.810;2022-12-10T21:09:21;5.20;95.30
24232;DHT22;12364;47.810;8.810;2022-12-10T21:11:48;5.20;95.30
24232;DHT22;12364;47.810;8.810;2022-12-10T21:14:15;5.20;95.50
24232;DHT22;12364;47.810;8.810;2022-12-10T21:17:02;5.20;95.50
24232;DHT22;12364;47.810;8.810;2022-12-10T21:19:29;5.20;95.60
24232;DHT22;12364;47.810;8.810;2022-12-10T21:21:56;5.20;95.50
24232;DHT22;12364;47.810;8.810;2022-12-10T21:24:23;5.20;95.40
24232;DHT22;12364;47.810;8.810;2022-12-10T21:26:50;5.20;95.30
24232;DHT22;12364;47.810;8.810;2022-12-10T21:29:17;5.30;95.20
24232;DHT22;12364;47.810;8.810;2022-12-10T21:31:44;5.30;95.10
24232;DHT22;12364;47.810;8.810;2022-12-10T21:34:11;5.30;95.00
24232;DHT22;12364;47.810;8.810;2022-12-10T21:36:38;5.30;95.10
24232;DHT22;12364;47.810;8.810;2022-12-10T21:39:05;5.30;94.80
24232;DHT22;12364;47.810;8.810;2022-12-10T21:41:32;5.30;95.10
24232;DHT22;12364;47.810;8.810;2022-12-10T21:44:17;5.30;94.70
24232;DHT22;12364;47.810;8.810;2022-12-10T21:46:44;5.30;94.50
24232;DHT22;12364;47.810;8.810;2022-12-10T21:49:11;5.20;94.60
24232;DHT22;12364;47.810;8.810;2022-12-10T21:51:38;5.20;94.70
24232;DHT22;12364;47.810;8.810;2022-12-10T21:54:06;5.20;94.70
24232;DHT22;12364;47.810;8.810;2022-12-10T21:56:34;5.10;94.80
24232;DHT22;12364;47.810;8.810;2022-12-10T21:59:01;5.20;94.80
24232;DHT22;12364;47.810;8.810;2022-12-10T22:01:28;5.10;94.90
24232;DHT22;12364;47.810;8.810;2022-12-10T22:03:55;5.10;95.10
24232;DHT22;12364;47.810;8.810;2022-12-10T22:06:24;5.10;95.10
24232;DHT22;12364;47.810;8.810;2022-12-10T22:08:51;5.10;95.30
24232;DHT22;12364;47.810;8.810;2022-12-10T22:11:18;5.10;95.30
24232;DHT22;12364;47.810;8.810;2022-12-10T22:13:45;5.10;95.40
24232;DHT22;12364;47.810;8.810;2022-12-10T22:16:12;5.10;95.20
24232;DHT22;12364;47.810;8.810;2022-12-10T22:18:39;5.20;95.30
24232;DHT22;12364;47.810;8.810;2022-12-10T22:21:05;5.20;95.00
24232;DHT22;12364;47.810;8.810;2022-12-10T22:23:32;5.10;95.20
24232;DHT22;12364;47.810;8.810;2022-12-10T22:25:59;5.10;95.30
24232;DHT22;12364;47.810;8.810;2022-12-10T22:28:32;5.10;95.10
24232;DHT22;12364;47.810;8.810;2022-12-10T22:30:59;5.20;95.00
24232;DHT22;12364;47.810;8.810;2022-12-10T22:33:26;5.10;94.60
24232;DHT22;12364;47.810;8.810;2022-12-10T22:35:52;5.10;94.70
24232;DHT22;12364;47.810;8.810;2022-12-10T22:38:19;5.00;94.60
24232;DHT22;12364;47.810;8.810;2022-12-10T22:40:46;5.00;94.70
24232;DHT22;12364;47.810;8.810;2022-12-10T22:43:13;4.90;94.60
24232;DHT22;12364;47.810;8.810;2022-12-10T22:46:00;4.90;94.30
24232;DHT22;12364;47.810;8.810;2022-12-10T22:48:27;4.80;94.20
24232;DHT22;12364;47.810;8.810;2022-12-10T22:50:58;4.80;94.20
24232;DHT22;12364;47.810;8.810;2022-12-10T22:53:25;4.80;94.00